Alcalde

2021-01-22 05:00:00

  • imperial
Date Time Air Temperature Relative Humidity Wind Speed Wind Dir. Precipitation Solar Radiation Soil Temperature Soil Temperature Soil Temperature Soil Temperature Soil Temperature
5cm 10cm 20cm 50cm 100cm
US/Mountain F % MPH deg in MJ/m^2 F F F F F
max min avg max min max avg avg
2021-01-21 07:00:00 19.8 15.8 17.4 96.0 94.0 2.6 0.5 232.0 0.00 0.0000720 -147.8 45.3 32.9 35.8 40.3
2021-01-21 08:00:00 18.9 16.5 17.8 96.0 92.0 3.4 0.7 65.0 0.00 0.0381960 -147.8 45.3 32.9 35.8 40.3
2021-01-21 09:00:00 27.9 17.2 21.9 94.0 80.0 2.8 0.5 213.0 0.00 0.5295600 -147.8 45.3 32.9 35.8 40.1
2021-01-21 10:00:00 31.3 27.9 29.5 80.0 67.0 3.9 0.7 329.0 0.00 1.1667600 -147.8 45.3 32.9 35.8 39.9
2021-01-21 11:00:00 36.7 31.3 33.6 68.0 57.0 2.8 0.8 270.0 0.00 1.6362000 -147.8 45.3 32.9 35.8 39.9
2021-01-21 12:00:00 41.0 36.0 37.6 61.0 52.0 5.1 1.2 208.0 0.00 1.9033200 -147.8 45.3 32.9 36.0 40.3
2021-01-21 13:00:00 43.0 41.0 41.5 55.0 52.0 3.7 1.0 56.0 0.00 1.6635600 -147.8 45.3 32.9 35.8 40.1
2021-01-21 14:00:00 46.2 42.6 44.2 53.0 49.0 5.3 2.2 62.0 0.00 1.8421200 -147.8 45.3 32.9 36.0 40.1
2021-01-21 15:00:00 50.4 46.2 48.0 49.0 40.0 5.1 2.2 55.0 0.00 1.5282000 -147.8 45.3 32.9 35.8 40.1
2021-01-21 16:00:00 50.7 49.5 50.2 42.0 34.0 12.7 5.0 310.0 0.00 1.0260000 -147.8 45.3 32.9 35.8 40.1
2021-01-21 17:00:00 49.6 47.5 49.1 40.0 36.0 12.6 5.1 296.0 0.00 0.4460400 -147.8 45.3 32.9 35.8 40.1
2021-01-21 18:00:00 47.5 37.4 44.2 61.0 40.0 4.4 1.3 32.0 0.00 0.0121680 -147.8 45.3 32.9 35.8 40.1
2021-01-21 19:00:00 38.1 34.2 36.0 72.0 61.0 2.7 0.8 71.0 0.00 0.0000000 -147.8 45.3 32.9 35.8 40.3
2021-01-21 20:00:00 34.7 28.9 32.0 85.0 70.0 2.4 0.6 70.0 0.00 0.0000000 -147.8 45.3 32.9 35.8 39.9
2021-01-21 21:00:00 29.5 27.1 28.6 89.0 84.0 2.5 0.4 74.0 0.00 0.0000000 -147.8 45.3 32.9 35.8 40.1
2021-01-21 22:00:00 28.2 25.9 27.0 92.0 85.0 1.8 0.4 114.0 0.00 0.0000000 -147.8 45.3 32.9 35.8 39.9
2021-01-21 23:00:00 26.8 24.8 25.9 92.0 89.0 4.6 1.1 32.0 0.00 0.0000000 -147.8 45.3 32.9 35.8 40.1
2021-01-22 00:00:00 25.3 24.6 25.0 92.0 90.0 3.3 0.8 41.0 0.00 0.0000000 -147.8 45.3 32.9 35.8 39.9
2021-01-22 01:00:00 25.7 23.5 24.8 92.0 90.0 3.7 0.6 97.0 0.00 0.0000000 -147.8 45.3 32.9 35.8 40.1
2021-01-22 02:00:00 24.3 20.8 23.4 96.0 91.0 1.8 0.4 82.0 0.00 0.0000000 -147.8 45.3 32.9 35.8 40.1
2021-01-22 03:00:00 25.2 21.2 22.8 97.0 95.0 2.0 0.5 75.0 0.00 0.0000000 -147.8 45.3 32.9 35.8 39.9
2021-01-22 04:00:00 26.1 24.4 25.0 96.0 94.0 2.0 0.5 178.0 0.00 0.0000000 -147.8 45.3 33.1 35.8 40.1
2021-01-22 05:00:00 24.6 22.5 24.1 97.0 96.0 1.2 0.1 115.0 0.00 0.0000000 -147.8 45.3 33.1 35.8 39.9

Data is presented as is, with no certification of correctness. DO NOT USE IN LEGAL PROCEEDINGS.